createdAt,value
2018-12-01T00:00:30.530Z,7.05
2018-12-01T00:02:59.336Z,5.97
2018-12-01T00:05:27.839Z,6.58
2018-12-01T00:07:56.686Z,7.05
2018-12-01T00:10:25.015Z,6.47
2018-12-01T00:12:53.306Z,6.40
2018-12-01T00:15:25.196Z,6.17
2018-12-01T00:17:53.960Z,6.95
2018-12-01T00:20:24.482Z,6.42
2018-12-01T00:22:52.921Z,7.00
2018-12-01T00:25:21.347Z,7.03
2018-12-01T00:27:49.725Z,7.10
2018-12-01T00:30:18.953Z,7.25
2018-12-01T00:32:48.548Z,7.75
2018-12-01T00:35:17.343Z,7.53
2018-12-01T00:37:45.813Z,8.35
2018-12-01T00:40:16.422Z,8.45
2018-12-01T00:42:44.846Z,8.53
2018-12-01T00:45:15.177Z,8.40
2018-12-01T00:47:44.577Z,8.58
2018-12-01T00:50:13.756Z,8.50
2018-12-01T00:52:42.497Z,8.40
2018-12-01T00:55:12.759Z,9.00
2018-12-01T00:57:41.225Z,7.78
2018-12-01T01:00:16.046Z,8.75
2018-12-01T01:02:48.553Z,8.78
2018-12-01T01:05:16.945Z,8.03
2018-12-01T01:07:45.388Z,8.40
2018-12-01T01:10:13.724Z,9.55
2018-12-01T01:12:42.155Z,8.48
2018-12-01T01:15:10.570Z,8.45
2018-12-01T01:17:38.922Z,7.62
2018-12-01T01:20:10.544Z,7.67
2018-12-01T01:22:38.966Z,6.85
2018-12-01T01:25:08.542Z,5.75
2018-12-01T01:27:36.832Z,5.05
2018-12-01T01:30:17.338Z,4.42
2018-12-01T01:32:45.583Z,5.05
2018-12-01T01:35:14.082Z,6.55
2018-12-01T01:37:42.343Z,5.72
2018-12-01T01:40:14.760Z,6.37
2018-12-01T01:42:43.098Z,7.67
2018-12-01T01:45:13.781Z,6.60
2018-12-01T01:47:42.238Z,7.22
2018-12-01T01:50:11.987Z,8.23
2018-12-01T01:52:40.312Z,7.50
2018-12-01T01:55:10.012Z,5.90
2018-12-01T01:57:38.521Z,6.83
2018-12-01T02:00:17.334Z,7.28
2018-12-01T02:02:48.565Z,7.05
2018-12-01T02:05:18.560Z,6.70
2018-12-01T02:07:46.949Z,6.70
2018-12-01T02:10:16.426Z,6.95
2018-12-01T02:12:44.757Z,6.42
2018-12-01T02:15:13.696Z,6.58
2018-12-01T02:17:42.010Z,6.10
2018-12-01T02:20:13.361Z,5.90
2018-12-01T02:22:41.842Z,5.25
2018-12-01T02:25:12.235Z,5.17
2018-12-01T02:27:40.523Z,4.75
2018-12-01T02:30:18.015Z,6.40
2018-12-01T02:32:46.746Z,5.50
2018-12-01T02:35:17.436Z,5.70
2018-12-01T02:37:45.832Z,5.00
2018-12-01T02:40:14.418Z,4.87
2018-12-01T02:42:44.056Z,4.33
2018-12-01T02:45:23.821Z,5.17
2018-12-01T02:47:52.152Z,5.35
2018-12-01T02:50:26.326Z,5.70
2018-12-01T02:52:56.731Z,5.42
2018-12-01T02:55:25.079Z,6.47
2018-12-01T02:57:53.485Z,6.45
2018-12-01T03:00:22.124Z,5.62
2018-12-01T03:02:50.506Z,5.35
2018-12-01T03:05:18.828Z,5.85
2018-12-01T03:07:47.293Z,5.87
2018-12-01T03:10:16.454Z,6.20
2018-12-01T03:12:44.954Z,5.42
2018-12-01T03:15:15.402Z,6.40
2018-12-01T03:17:43.832Z,5.90
2018-12-01T03:20:14.757Z,6.55
2018-12-01T03:22:43.086Z,6.47
2018-12-01T03:25:17.030Z,6.35
2018-12-01T03:27:45.357Z,6.00
2018-12-01T03:30:13.740Z,5.25
2018-12-01T03:32:42.113Z,5.80
2018-12-01T03:35:12.261Z,6.75
2018-12-01T03:37:43.440Z,6.92
2018-12-01T03:40:12.600Z,6.42
2018-12-01T03:42:41.119Z,7.12
2018-12-01T03:45:12.572Z,6.90
2018-12-01T03:47:40.990Z,6.90
2018-12-01T03:50:10.575Z,6.17
2018-12-01T03:52:39.140Z,5.92
2018-12-01T03:55:18.622Z,6.97
2018-12-01T03:57:47.032Z,6.78
2018-12-01T04:00:15.486Z,6.20
2018-12-01T04:02:43.886Z,6.47
2018-12-01T04:05:12.249Z,7.05
2018-12-01T04:07:40.600Z,7.55
2018-12-01T04:10:09.010Z,7.55
2018-12-01T04:12:37.341Z,7.65
2018-12-01T04:15:05.633Z,9.23
2018-12-01T04:17:33.876Z,7.97
2018-12-01T04:20:02.200Z,8.85
2018-12-01T04:22:30.751Z,8.35
2018-12-01T04:25:00.056Z,7.72
2018-12-01T04:27:28.552Z,8.25
2018-12-01T04:29:57.060Z,8.15
2018-12-01T04:32:25.381Z,8.15
2018-12-01T04:34:53.658Z,8.00
2018-12-01T04:37:21.989Z,8.70
2018-12-01T04:39:50.331Z,7.83
2018-12-01T04:42:18.690Z,7.40
2018-12-01T04:44:46.983Z,8.40
2018-12-01T04:47:15.274Z,8.53
2018-12-01T04:49:43.788Z,8.48
2018-12-01T04:52:12.208Z,8.53
2018-12-01T04:54:40.503Z,10.40
2018-12-01T04:57:08.983Z,10.55
2018-12-01T04:59:37.355Z,10.48
2018-12-01T05:02:06.164Z,9.70
2018-12-01T05:04:34.565Z,11.93
2018-12-01T05:07:02.914Z,13.48
2018-12-01T05:09:31.337Z,15.38
2018-12-01T05:11:59.798Z,15.10
2018-12-01T05:14:28.072Z,10.60
2018-12-01T05:16:56.536Z,10.48
2018-12-01T05:19:25.017Z,9.38
2018-12-01T05:21:53.290Z,9.13
2018-12-01T05:24:21.692Z,8.23
2018-12-01T05:26:50.172Z,9.08
2018-12-01T05:29:18.522Z,9.10
2018-12-01T05:31:46.794Z,8.63
2018-12-01T05:34:15.304Z,8.38
2018-12-01T05:36:43.660Z,8.10
2018-12-01T05:39:11.968Z,8.40
2018-12-01T05:41:40.331Z,8.55
2018-12-01T05:44:08.690Z,8.00
2018-12-01T05:46:36.972Z,7.90
2018-12-01T05:49:05.666Z,7.58
2018-12-01T05:51:34.152Z,7.58
2018-12-01T05:54:02.471Z,8.40
2018-12-01T05:56:31.863Z,8.45
2018-12-01T05:59:00.354Z,8.30
2018-12-01T06:01:28.760Z,9.48
2018-12-01T06:03:57.054Z,8.90
2018-12-01T06:06:25.299Z,8.93
2018-12-01T06:08:53.674Z,9.13
2018-12-01T06:11:21.999Z,10.05
2018-12-01T06:13:50.313Z,8.20
2018-12-01T06:16:18.635Z,8.10
2018-12-01T06:18:46.950Z,9.43
2018-12-01T06:21:15.246Z,9.60
2018-12-01T06:23:43.614Z,8.85
2018-12-01T06:26:12.020Z,10.00
2018-12-01T06:28:40.365Z,10.70
2018-12-01T06:31:08.732Z,9.78
2018-12-01T06:33:37.003Z,11.28
2018-12-01T06:36:05.475Z,9.48
2018-12-01T06:38:33.749Z,10.18
2018-12-01T06:41:02.062Z,11.10
2018-12-01T06:43:30.458Z,10.70
2018-12-01T06:45:58.976Z,10.15
2018-12-01T06:48:27.399Z,10.75
2018-12-01T06:50:55.739Z,9.75
2018-12-01T06:53:24.139Z,9.63
2018-12-01T06:55:52.521Z,9.70
2018-12-01T06:58:20.763Z,15.13
2018-12-01T07:00:49.303Z,15.83
2018-12-01T07:03:17.594Z,19.25
2018-12-01T07:05:45.999Z,16.12
2018-12-01T07:08:14.359Z,13.83
2018-12-01T07:10:42.660Z,11.80
2018-12-01T07:13:10.967Z,13.08
2018-12-01T07:15:40.567Z,16.00
2018-12-01T07:18:20.175Z,15.10
2018-12-01T07:20:48.482Z,13.43
2018-12-01T07:23:17.122Z,13.40
2018-12-01T07:25:45.866Z,11.65
2018-12-01T07:28:14.438Z,11.50
2018-12-01T07:30:42.911Z,8.08
2018-12-01T07:33:11.298Z,11.10
2018-12-01T07:35:39.805Z,10.80
2018-12-01T07:38:08.270Z,9.48
2018-12-01T07:40:36.725Z,9.10
2018-12-01T07:43:05.442Z,6.67
2018-12-01T07:45:33.955Z,8.70
2018-12-01T07:48:02.260Z,8.00
2018-12-01T07:50:30.653Z,8.43
2018-12-01T07:52:59.088Z,9.03
2018-12-01T07:55:27.435Z,8.30
2018-12-01T07:57:55.767Z,8.68
2018-12-01T08:00:24.105Z,7.90
2018-12-01T08:02:52.465Z,7.20
2018-12-01T08:05:20.865Z,7.70
2018-12-01T08:07:49.142Z,6.87
2018-12-01T08:10:17.568Z,7.53
2018-12-01T08:12:46.440Z,6.20
2018-12-01T08:15:16.754Z,6.50
2018-12-01T08:17:45.690Z,7.28
2018-12-01T08:20:15.013Z,6.10
2018-12-01T08:22:43.259Z,6.55
2018-12-01T08:25:14.033Z,5.75
2018-12-01T08:27:42.339Z,5.70
2018-12-01T08:30:19.709Z,5.67
2018-12-01T08:32:48.178Z,6.00
2018-12-01T08:35:16.524Z,5.42
2018-12-01T08:37:44.925Z,5.05
2018-12-01T08:40:14.712Z,6.50
2018-12-01T08:42:43.122Z,6.78
2018-12-01T08:45:28.453Z,5.72
2018-12-01T08:48:19.246Z,5.67
2018-12-01T08:50:48.722Z,5.78
2018-12-01T08:53:17.093Z,4.40
2018-12-01T08:55:45.446Z,4.87
2018-12-01T08:58:14.106Z,5.47
2018-12-01T09:00:43.047Z,4.25
2018-12-01T09:03:20.442Z,3.50
2018-12-01T09:05:48.779Z,3.83
2018-12-01T09:08:17.519Z,4.12
2018-12-01T09:10:46.158Z,3.40
2018-12-01T09:13:14.573Z,3.55
2018-12-01T09:15:43.002Z,3.00
2018-12-01T09:18:11.433Z,4.17
2018-12-01T09:20:39.807Z,3.60
2018-12-01T09:23:08.289Z,3.30
2018-12-01T09:25:36.857Z,3.70
2018-12-01T09:28:05.973Z,3.80
2018-12-01T09:30:35.683Z,3.87
2018-12-01T09:33:04.227Z,3.20
2018-12-01T09:35:32.690Z,3.72
2018-12-01T09:38:01.211Z,3.40
2018-12-01T09:40:29.569Z,3.12
2018-12-01T09:42:58.027Z,3.35
2018-12-01T09:45:26.803Z,3.85
2018-12-01T09:47:56.083Z,4.42
2018-12-01T09:50:24.493Z,3.70
2018-12-01T09:52:55.007Z,4.15
2018-12-01T09:55:25.502Z,4.10
2018-12-01T09:57:54.020Z,4.28
2018-12-01T10:00:27.924Z,4.25
2018-12-01T10:02:56.401Z,3.65
2018-12-01T10:05:24.940Z,3.77
2018-12-01T10:07:53.515Z,4.20
2018-12-01T10:10:23.098Z,3.47
2018-12-01T10:12:52.720Z,4.10
2018-12-01T10:15:22.113Z,3.27
2018-12-01T10:17:50.591Z,4.05
2018-12-01T10:20:22.006Z,4.92
2018-12-01T10:22:50.394Z,3.65
2018-12-01T10:25:18.932Z,3.77
2018-12-01T10:28:03.784Z,4.00
2018-12-01T10:30:33.594Z,3.50
2018-12-01T10:33:02.383Z,4.03
2018-12-01T10:35:31.064Z,4.42
2018-12-01T10:38:03.546Z,4.00
2018-12-01T10:40:32.211Z,3.40
2018-12-01T10:43:00.526Z,4.12
2018-12-01T10:45:29.012Z,3.75
2018-12-01T10:47:57.514Z,2.70
2018-12-01T10:50:25.884Z,3.30
2018-12-01T10:52:55.424Z,3.27
2018-12-01T10:55:29.069Z,3.40
2018-12-01T10:58:10.030Z,3.83
2018-12-01T11:00:43.735Z,3.42
2018-12-01T11:03:17.596Z,3.40
2018-12-01T11:05:46.217Z,2.47
2018-12-01T11:08:16.281Z,2.98
2018-12-01T11:10:45.424Z,2.15
2018-12-01T11:13:13.878Z,3.10
2018-12-01T11:15:42.262Z,2.27
2018-12-01T11:18:10.734Z,2.40
2018-12-01T11:20:39.392Z,2.47
2018-12-01T11:23:08.057Z,1.60
2018-12-01T11:25:36.514Z,1.70
2018-12-01T11:28:04.990Z,1.70
2018-12-01T11:30:33.466Z,2.10
2018-12-01T11:33:01.890Z,1.92
2018-12-01T11:35:31.117Z,2.52
2018-12-01T11:38:02.074Z,2.80
2018-12-01T11:40:30.409Z,2.25
2018-12-01T11:42:58.896Z,2.20
2018-12-01T11:45:27.282Z,2.23
2018-12-01T11:47:55.580Z,2.00
2018-12-01T11:50:23.969Z,2.35
2018-12-01T11:52:52.291Z,2.20
2018-12-01T11:55:22.758Z,1.70
2018-12-01T11:57:52.048Z,2.23
2018-12-01T12:00:23.101Z,2.80
2018-12-01T12:02:51.538Z,2.40
2018-12-01T12:05:19.879Z,2.00
2018-12-01T12:07:59.532Z,2.70
2018-12-01T12:10:27.824Z,2.40
2018-12-01T12:12:56.372Z,2.80
2018-12-01T12:15:25.571Z,2.13
2018-12-01T12:17:58.460Z,2.27
2018-12-01T12:20:26.779Z,2.00
2018-12-01T12:22:55.178Z,2.17
2018-12-01T12:25:23.466Z,1.90
2018-12-01T12:27:51.818Z,1.80
2018-12-01T12:30:25.908Z,1.87
2018-12-01T12:32:50.007Z,2.40
2018-12-01T12:35:18.521Z,2.73
2018-12-01T12:37:46.935Z,1.80
2018-12-01T12:40:22.315Z,1.97
2018-12-01T12:42:51.244Z,2.40
2018-12-01T12:45:19.539Z,2.50
2018-12-01T12:47:47.896Z,2.00
2018-12-01T12:50:17.665Z,2.53
2018-12-01T12:52:47.062Z,1.97
2018-12-01T12:55:16.482Z,2.07
2018-12-01T12:57:44.975Z,2.30
2018-12-01T13:00:15.137Z,1.87
2018-12-01T13:02:46.945Z,1.97
2018-12-01T13:05:21.926Z,2.93
2018-12-01T13:07:50.591Z,2.27
2018-12-01T13:10:20.941Z,2.63
2018-12-01T13:12:49.458Z,2.23
2018-12-01T13:15:20.358Z,2.40
2018-12-01T13:17:48.804Z,2.00
2018-12-01T13:20:23.316Z,2.20
2018-12-01T13:22:57.907Z,1.53
2018-12-01T13:25:26.313Z,2.23
2018-12-01T13:27:59.199Z,1.90
2018-12-01T13:30:29.626Z,2.03
2018-12-01T13:32:58.432Z,1.80
2018-12-01T13:35:26.930Z,1.67
2018-12-01T13:37:55.423Z,1.53
2018-12-01T13:40:24.150Z,2.43
2018-12-01T13:42:52.608Z,1.90
2018-12-01T13:45:21.700Z,1.60
2018-12-01T13:47:50.870Z,1.52
2018-12-01T13:50:20.235Z,2.10
2018-12-01T13:52:52.223Z,3.13
2018-12-01T13:55:21.634Z,2.60
2018-12-01T13:57:50.206Z,1.97
2018-12-01T14:00:19.887Z,3.12
2018-12-01T14:02:49.635Z,2.10
2018-12-01T14:05:18.141Z,1.95
2018-12-01T14:07:46.926Z,2.20
2018-12-01T14:10:18.449Z,2.33
2018-12-01T14:12:48.159Z,2.40
2018-12-01T14:15:19.610Z,2.33
2018-12-01T14:17:48.487Z,2.62
2018-12-01T14:20:17.447Z,1.90
2018-12-01T14:22:46.857Z,2.33
2018-12-01T14:25:16.693Z,2.85
2018-12-01T14:28:16.945Z,2.15
2018-12-01T14:30:45.281Z,2.40
2018-12-01T14:33:13.855Z,2.55
2018-12-01T14:35:42.868Z,2.40
2018-12-01T14:38:15.200Z,2.47
2018-12-01T14:40:44.645Z,2.90
2018-12-01T14:43:13.290Z,2.83
2018-12-01T14:45:42.542Z,2.60
2018-12-01T14:48:10.989Z,2.87
2018-12-01T14:50:39.314Z,3.30
2018-12-01T14:53:09.035Z,2.58
2018-12-01T14:55:37.557Z,3.12
2018-12-01T14:58:07.006Z,2.40
2018-12-01T15:00:36.031Z,2.70
2018-12-01T15:03:04.481Z,2.37
2018-12-01T15:05:32.842Z,2.37
2018-12-01T15:08:01.264Z,2.35
2018-12-01T15:10:30.891Z,3.22
2018-12-01T15:12:59.267Z,1.87
2018-12-01T15:15:28.226Z,2.90
2018-12-01T15:17:56.588Z,2.70
2018-12-01T15:20:25.779Z,2.20
2018-12-01T15:22:56.371Z,2.37
2018-12-01T15:25:26.085Z,2.90
2018-12-01T15:27:54.463Z,2.70
2018-12-01T15:30:24.844Z,3.20
2018-12-01T15:33:03.452Z,4.45
2018-12-01T15:35:31.759Z,5.62
2018-12-01T15:38:00.161Z,3.12
2018-12-01T15:40:28.567Z,2.87
2018-12-01T15:42:56.975Z,3.10
2018-12-01T15:45:25.555Z,3.65
2018-12-01T15:47:54.198Z,9.03
2018-12-01T15:50:22.503Z,7.47
2018-12-01T15:52:53.796Z,28.62
2018-12-01T15:55:22.585Z,3.75
2018-12-01T15:57:50.949Z,5.70
2018-12-01T16:00:22.266Z,5.92
2018-12-01T16:02:50.725Z,3.75
2018-12-01T16:05:20.114Z,7.72
2018-12-01T16:07:50.083Z,7.85
2018-12-01T16:10:20.885Z,25.57
2018-12-01T16:12:51.638Z,12.45
2018-12-01T16:15:38.638Z,22.20
2018-12-01T16:18:08.240Z,18.05
2018-12-01T16:20:36.643Z,18.60
2018-12-01T16:23:05.318Z,15.83
2018-12-01T16:25:33.776Z,9.88
2018-12-01T16:28:02.091Z,31.35
2018-12-01T16:30:32.997Z,9.20
2018-12-01T16:33:02.840Z,14.03
2018-12-01T16:35:31.179Z,41.18
2018-12-01T16:37:59.667Z,8.25
2018-12-01T16:40:29.736Z,3.00
2018-12-01T16:42:59.516Z,3.10
2018-12-01T16:45:27.823Z,2.90
2018-12-01T16:47:56.213Z,2.95
2018-12-01T16:50:24.744Z,5.85
2018-12-01T16:52:53.056Z,3.58
2018-12-01T16:55:21.364Z,7.50
2018-12-01T16:57:49.993Z,8.58
2018-12-01T17:00:19.297Z,3.67
2018-12-01T17:02:49.162Z,3.35
2018-12-01T17:05:19.161Z,3.55
2018-12-01T17:07:47.818Z,5.33
2018-12-01T17:10:18.560Z,5.00
2018-12-01T17:12:48.078Z,8.10
2018-12-01T17:15:17.984Z,3.27
2018-12-01T17:17:46.591Z,13.60
2018-12-01T17:20:15.689Z,2.10
2018-12-01T17:22:47.337Z,11.50
2018-12-01T17:25:16.630Z,4.12
2018-12-01T17:27:45.595Z,2.92
2018-12-01T17:30:15.455Z,10.05
2018-12-01T17:32:43.825Z,4.45
2018-12-01T17:35:14.674Z,2.50
2018-12-01T17:37:43.259Z,2.77
2018-12-01T17:40:14.597Z,2.70
2018-12-01T17:42:44.894Z,2.42
2018-12-01T17:45:13.279Z,2.00
2018-12-01T17:47:41.754Z,2.40
2018-12-01T17:50:13.649Z,2.87
2018-12-01T17:52:43.495Z,3.02
2018-12-01T17:55:13.222Z,2.90
2018-12-01T17:57:41.594Z,2.15
2018-12-01T18:00:14.518Z,2.33
2018-12-01T18:02:42.874Z,2.10
2018-12-01T18:05:12.915Z,2.60
2018-12-01T18:07:41.374Z,2.15
2018-12-01T18:10:11.149Z,2.92
2018-12-01T18:12:39.560Z,2.37
2018-12-01T18:15:11.690Z,2.77
2018-12-01T18:17:40.037Z,3.22
2018-12-01T18:20:16.152Z,2.90
2018-12-01T18:22:45.502Z,3.30
2018-12-01T18:25:13.805Z,3.10
2018-12-01T18:27:42.438Z,3.17
2018-12-01T18:30:16.763Z,3.17
2018-12-01T18:32:45.734Z,3.05
2018-12-01T18:35:14.166Z,3.35
2018-12-01T18:37:42.566Z,3.80
2018-12-01T18:40:14.986Z,2.83
2018-12-01T18:42:43.459Z,3.50
2018-12-01T18:45:14.294Z,3.60
2018-12-01T18:47:42.781Z,3.98
2018-12-01T18:50:13.727Z,4.33
2018-12-01T18:52:42.926Z,4.37
2018-12-01T18:55:12.922Z,4.28
2018-12-01T18:57:41.523Z,3.70
2018-12-01T19:00:15.470Z,4.53
2018-12-01T19:02:45.307Z,5.00
2018-12-01T19:05:13.845Z,4.90
2018-12-01T19:07:42.529Z,3.80
2018-12-01T19:10:16.285Z,4.30
2018-12-01T19:12:44.656Z,3.95
2018-12-01T19:15:15.720Z,4.17
2018-12-01T19:17:45.065Z,4.70
2018-12-01T19:20:16.300Z,4.75
2018-12-01T19:22:45.074Z,4.62
2018-12-01T19:25:18.551Z,6.17
2018-12-01T19:27:47.312Z,5.42
2018-12-01T19:30:17.642Z,6.10
2018-12-01T19:32:52.405Z,6.42
2018-12-01T19:35:20.866Z,6.70
2018-12-01T19:37:50.458Z,6.78
2018-12-01T19:40:34.285Z,7.33
2018-12-01T19:43:03.091Z,6.80
2018-12-01T19:45:31.378Z,6.10
2018-12-01T19:47:59.971Z,6.33
2018-12-01T19:50:38.031Z,6.80
2018-12-01T19:53:08.125Z,6.78
2018-12-01T19:55:36.601Z,7.40
2018-12-01T19:58:12.450Z,6.20
2018-12-01T20:00:42.156Z,7.67
2018-12-01T20:03:13.648Z,6.72
2018-12-01T20:05:41.997Z,5.90
2018-12-01T20:08:10.537Z,5.92
2018-12-01T20:10:42.338Z,5.92
2018-12-01T20:13:15.121Z,5.60
2018-12-01T20:15:45.528Z,5.55
2018-12-01T20:18:16.375Z,5.67
2018-12-01T20:20:44.851Z,5.47
2018-12-01T20:23:13.254Z,5.60
2018-12-01T20:25:41.761Z,5.70
2018-12-01T20:28:10.054Z,5.33
2018-12-01T20:30:38.894Z,5.00
2018-12-01T20:33:07.494Z,5.30
2018-12-01T20:36:41.457Z,5.42
2018-12-01T20:39:31.515Z,4.90
2018-12-01T20:42:00.062Z,5.25
2018-12-01T20:44:28.488Z,5.25
2018-12-01T20:46:57.716Z,6.50
2018-12-01T20:49:26.220Z,5.00
2018-12-01T20:51:54.655Z,5.20
2018-12-01T20:54:35.002Z,5.15
2018-12-01T20:57:07.507Z,5.10
2018-12-01T20:59:36.176Z,5.30
2018-12-01T21:02:08.078Z,5.25
2018-12-01T21:04:36.529Z,6.22
2018-12-01T21:07:05.029Z,5.30
2018-12-01T21:09:33.466Z,5.62
2018-12-01T21:12:02.481Z,5.87
2018-12-01T21:14:30.926Z,5.35
2018-12-01T21:16:59.274Z,6.42
2018-12-01T21:19:27.766Z,5.53
2018-12-01T21:21:56.233Z,5.80
2018-12-01T21:24:24.500Z,5.30
2018-12-01T21:26:52.922Z,6.50
2018-12-01T21:29:22.015Z,6.00
2018-12-01T21:31:50.366Z,5.47
2018-12-01T21:34:18.757Z,5.95
2018-12-01T21:36:47.077Z,5.80
2018-12-01T21:39:15.342Z,6.55
2018-12-01T21:41:47.930Z,5.25
2018-12-01T21:44:16.402Z,6.00
2018-12-01T21:46:44.754Z,5.95
2018-12-01T21:49:13.255Z,5.30
2018-12-01T21:51:42.081Z,5.70
2018-12-01T21:54:10.579Z,5.35
2018-12-01T21:56:39.155Z,6.28
2018-12-01T21:59:07.587Z,7.03
2018-12-01T22:01:35.976Z,6.20
2018-12-01T22:04:04.361Z,6.67
2018-12-01T22:06:32.806Z,6.60
2018-12-01T22:09:01.431Z,5.85
2018-12-01T22:11:29.933Z,5.40
2018-12-01T22:13:58.292Z,5.65
2018-12-01T22:16:26.727Z,5.72
2018-12-01T22:18:55.230Z,6.45
2018-12-01T22:21:23.758Z,5.17
2018-12-01T22:23:52.245Z,5.85
2018-12-01T22:26:20.557Z,5.40
2018-12-01T22:28:55.359Z,5.95
2018-12-01T22:31:23.897Z,5.35
2018-12-01T22:33:52.282Z,5.90
2018-12-01T22:36:20.804Z,6.50
2018-12-01T22:38:49.246Z,5.33
2018-12-01T22:41:17.587Z,5.53
2018-12-01T22:43:45.977Z,6.05
2018-12-01T22:46:14.394Z,5.22
2018-12-01T22:48:43.645Z,5.10
2018-12-01T22:51:11.967Z,5.28
2018-12-01T22:53:40.544Z,6.28
2018-12-01T22:56:09.456Z,5.47
2018-12-01T22:58:38.071Z,4.92
2018-12-01T23:01:07.360Z,4.15
2018-12-01T23:03:39.444Z,4.55
2018-12-01T23:06:08.276Z,6.28
2018-12-01T23:08:36.944Z,6.03
2018-12-01T23:11:05.790Z,6.75
2018-12-01T23:13:34.359Z,6.67
2018-12-01T23:16:02.878Z,6.08
2018-12-01T23:18:31.477Z,6.60
2018-12-01T23:21:00.456Z,6.00
2018-12-01T23:23:28.722Z,6.47
2018-12-01T23:25:57.071Z,6.00
2018-12-01T23:28:25.622Z,5.40
2018-12-01T23:30:55.370Z,5.03
2018-12-01T23:33:25.408Z,5.35
2018-12-01T23:35:53.886Z,5.45
2018-12-01T23:38:28.854Z,5.80
2018-12-01T23:40:58.089Z,4.75
2018-12-01T23:43:26.856Z,6.55
2018-12-01T23:45:55.341Z,5.42
2018-12-01T23:48:24.656Z,6.12
2018-12-01T23:50:55.531Z,7.15
2018-12-01T23:53:25.976Z,6.17
2018-12-01T23:55:54.490Z,6.10
2018-12-01T23:58:24.288Z,6.72
